<?xml version="1.0" encoding="utf-8"?>
<gpx xmlns:xsi="http://www.w3.org/2001/XMLSchema-instance" xmlns:xsd="http://www.w3.org/2001/XMLSchema" version="1.1" creator="Shapelink.com" xmlns="http://www.topografix.com/GPX/1/1" xmlns:gpxtpx="http://www.garmin.com/xmlschemas/TrackPointExtension/v1">
  <metadata>
    <name>Løping 4.18 km, 2012-05-02</name>
    <desc></desc>
    <author><name>Mikael Blom</name></author> 
    <time>2012-05-02T18:27:16Z</time>
  </metadata>
  <trk>
    <name>Løping 4.18 km, 2012-05-02</name>
    <trkseg>
      <trkpt lat="59.9922934" lon="17.7374483">
        <ele>60.2197</ele>
        <time>2012-05-02T18:27:16Z</time>
      </trkpt>
      <trkpt lat="59.992184" lon="17.7374691">
        <ele>58.2971</ele>
        <time>2012-05-02T18:27:21Z</time>
      </trkpt>
      <trkpt lat="59.9920443" lon="17.7375132">
        <ele>56.3745</ele>
        <time>2012-05-02T18:27:26Z</time>
      </trkpt>
      <trkpt lat="59.9920049" lon="17.7375365">
        <ele>55.4131</ele>
        <time>2012-05-02T18:27:28Z</time>
      </trkpt>
      <trkpt lat="59.9919208" lon="17.7375221">
        <ele>56.3745</ele>
        <time>2012-05-02T18:27:32Z</time>
      </trkpt>
      <trkpt lat="59.9917815" lon="17.7375569">
        <ele>57.3358</ele>
        <time>2012-05-02T18:27:38Z</time>
      </trkpt>
      <trkpt lat="59.9916698" lon="17.7375325">
        <ele>57.8165</ele>
        <time>2012-05-02T18:27:42Z</time>
      </trkpt>
      <trkpt lat="59.9916081" lon="17.7375424">
        <ele>57.8165</ele>
        <time>2012-05-02T18:27:44Z</time>
      </trkpt>
      <trkpt lat="59.9914807" lon="17.7375466">
        <ele>57.3358</ele>
        <time>2012-05-02T18:27:49Z</time>
      </trkpt>
      <trkpt lat="59.9913695" lon="17.7375666">
        <ele>54.9324</ele>
        <time>2012-05-02T18:27:53Z</time>
      </trkpt>
      <trkpt lat="59.9912512" lon="17.7375903">
        <ele>53.9712</ele>
        <time>2012-05-02T18:27:57Z</time>
      </trkpt>
      <trkpt lat="59.9911994" lon="17.7376303">
        <ele>53.0098</ele>
        <time>2012-05-02T18:27:59Z</time>
      </trkpt>
      <trkpt lat="59.9910757" lon="17.7376919">
        <ele>53.9712</ele>
        <time>2012-05-02T18:28:04Z</time>
      </trkpt>
      <trkpt lat="59.9910041" lon="17.7377283">
        <ele>53.9712</ele>
        <time>2012-05-02T18:28:08Z</time>
      </trkpt>
      <trkpt lat="59.9909231" lon="17.7377888">
        <ele>55.4131</ele>
        <time>2012-05-02T18:28:12Z</time>
      </trkpt>
      <trkpt lat="59.9908791" lon="17.7378194">
        <ele>55.4131</ele>
        <time>2012-05-02T18:28:14Z</time>
      </trkpt>
      <trkpt lat="59.99073" lon="17.7380009">
        <ele>56.3745</ele>
        <time>2012-05-02T18:28:20Z</time>
      </trkpt>
      <trkpt lat="59.9906041" lon="17.7380904">
        <ele>56.3745</ele>
        <time>2012-05-02T18:28:25Z</time>
      </trkpt>
      <trkpt lat="59.9905743" lon="17.7381246">
        <ele>54.9324</ele>
        <time>2012-05-02T18:28:26Z</time>
      </trkpt>
      <trkpt lat="59.9904229" lon="17.7382008">
        <ele>54.4518</ele>
        <time>2012-05-02T18:28:32Z</time>
      </trkpt>
      <trkpt lat="59.99032" lon="17.7382395">
        <ele>53.9712</ele>
        <time>2012-05-02T18:28:37Z</time>
      </trkpt>
      <trkpt lat="59.9902462" lon="17.7382443">
        <ele>55.8938</ele>
        <time>2012-05-02T18:28:41Z</time>
      </trkpt>
      <trkpt lat="59.9902024" lon="17.7382691">
        <ele>56.8551</ele>
        <time>2012-05-02T18:28:43Z</time>
      </trkpt>
      <trkpt lat="59.9901011" lon="17.738325">
        <ele>60.7003</ele>
        <time>2012-05-02T18:28:48Z</time>
      </trkpt>
      <trkpt lat="59.9900199" lon="17.738354">
        <ele>58.7777</ele>
        <time>2012-05-02T18:28:51Z</time>
      </trkpt>
      <trkpt lat="59.9899707" lon="17.7383592">
        <ele>58.2971</ele>
        <time>2012-05-02T18:28:53Z</time>
      </trkpt>
      <trkpt lat="59.9898541" lon="17.7384745">
        <ele>58.7777</ele>
        <time>2012-05-02T18:28:57Z</time>
      </trkpt>
      <trkpt lat="59.9897463" lon="17.7385565">
        <ele>58.2971</ele>
        <time>2012-05-02T18:29:01Z</time>
      </trkpt>
      <trkpt lat="59.9896392" lon="17.7385898">
        <ele>56.8551</ele>
        <time>2012-05-02T18:29:05Z</time>
      </trkpt>
      <trkpt lat="59.9895535" lon="17.7386328">
        <ele>56.8551</ele>
        <time>2012-05-02T18:29:08Z</time>
      </trkpt>
      <trkpt lat="59.9894428" lon="17.738671">
        <ele>55.8938</ele>
        <time>2012-05-02T18:29:12Z</time>
      </trkpt>
      <trkpt lat="59.989352" lon="17.7386885">
        <ele>55.4131</ele>
        <time>2012-05-02T18:29:16Z</time>
      </trkpt>
      <trkpt lat="59.9892745" lon="17.738723">
        <ele>55.8938</ele>
        <time>2012-05-02T18:29:20Z</time>
      </trkpt>
      <trkpt lat="59.9892008" lon="17.7387361">
        <ele>54.9324</ele>
        <time>2012-05-02T18:29:24Z</time>
      </trkpt>
      <trkpt lat="59.9890963" lon="17.7387886">
        <ele>55.4131</ele>
        <time>2012-05-02T18:29:29Z</time>
      </trkpt>
      <trkpt lat="59.9890155" lon="17.7388513">
        <ele>55.8938</ele>
        <time>2012-05-02T18:29:33Z</time>
      </trkpt>
      <trkpt lat="59.98892" lon="17.7389259">
        <ele>59.7391</ele>
        <time>2012-05-02T18:29:38Z</time>
      </trkpt>
      <trkpt lat="59.9888155" lon="17.7389813">
        <ele>60.2197</ele>
        <time>2012-05-02T18:29:43Z</time>
      </trkpt>
      <trkpt lat="59.9887086" lon="17.7390216">
        <ele>62.1423</ele>
        <time>2012-05-02T18:29:49Z</time>
      </trkpt>
      <trkpt lat="59.9886436" lon="17.7390912">
        <ele>63.1036</ele>
        <time>2012-05-02T18:29:53Z</time>
      </trkpt>
      <trkpt lat="59.9885289" lon="17.739185">
        <ele>63.1036</ele>
        <time>2012-05-02T18:29:58Z</time>
      </trkpt>
      <trkpt lat="59.9884762" lon="17.7392248">
        <ele>62.6229</ele>
        <time>2012-05-02T18:30:00Z</time>
      </trkpt>
      <trkpt lat="59.9884109" lon="17.7392345">
        <ele>62.6229</ele>
        <time>2012-05-02T18:30:04Z</time>
      </trkpt>
      <trkpt lat="59.9883486" lon="17.7392397">
        <ele>64.5457</ele>
        <time>2012-05-02T18:30:07Z</time>
      </trkpt>
      <trkpt lat="59.9882085" lon="17.7392713">
        <ele>62.6229</ele>
        <time>2012-05-02T18:30:13Z</time>
      </trkpt>
      <trkpt lat="59.9880648" lon="17.7392911">
        <ele>62.1423</ele>
        <time>2012-05-02T18:30:19Z</time>
      </trkpt>
      <trkpt lat="59.9880441" lon="17.7392879">
        <ele>62.1423</ele>
        <time>2012-05-02T18:30:20Z</time>
      </trkpt>
      <trkpt lat="59.9879381" lon="17.7392942">
        <ele>61.6617</ele>
        <time>2012-05-02T18:30:25Z</time>
      </trkpt>
      <trkpt lat="59.9878791" lon="17.7393208">
        <ele>62.1423</ele>
        <time>2012-05-02T18:30:28Z</time>
      </trkpt>
      <trkpt lat="59.9876964" lon="17.7393482">
        <ele>61.6617</ele>
        <time>2012-05-02T18:30:35Z</time>
      </trkpt>
      <trkpt lat="59.987668" lon="17.7393543">
        <ele>61.181</ele>
        <time>2012-05-02T18:30:36Z</time>
      </trkpt>
      <trkpt lat="59.9875659" lon="17.7393616">
        <ele>60.2197</ele>
        <time>2012-05-02T18:30:40Z</time>
      </trkpt>
      <trkpt lat="59.9875324" lon="17.739388">
        <ele>59.2584</ele>
        <time>2012-05-02T18:30:41Z</time>
      </trkpt>
      <trkpt lat="59.9873652" lon="17.7394165">
        <ele>56.3745</ele>
        <time>2012-05-02T18:30:47Z</time>
      </trkpt>
      <trkpt lat="59.9872367" lon="17.7394263">
        <ele>54.4518</ele>
        <time>2012-05-02T18:30:52Z</time>
      </trkpt>
      <trkpt lat="59.9871091" lon="17.7393723">
        <ele>53.4905</ele>
        <time>2012-05-02T18:30:57Z</time>
      </trkpt>
      <trkpt lat="59.9870424" lon="17.7392896">
        <ele>53.0098</ele>
        <time>2012-05-02T18:31:01Z</time>
      </trkpt>
      <trkpt lat="59.9869695" lon="17.7392225">
        <ele>53.4905</ele>
        <time>2012-05-02T18:31:05Z</time>
      </trkpt>
      <trkpt lat="59.986878" lon="17.7391089">
        <ele>57.8165</ele>
        <time>2012-05-02T18:31:11Z</time>
      </trkpt>
      <trkpt lat="59.9867528" lon="17.7390184">
        <ele>58.2971</ele>
        <time>2012-05-02T18:31:17Z</time>
      </trkpt>
      <trkpt lat="59.9866689" lon="17.7389679">
        <ele>60.7003</ele>
        <time>2012-05-02T18:31:21Z</time>
      </trkpt>
      <trkpt lat="59.9866126" lon="17.738906">
        <ele>63.1036</ele>
        <time>2012-05-02T18:31:24Z</time>
      </trkpt>
      <trkpt lat="59.9864926" lon="17.7387829">
        <ele>65.0264</ele>
        <time>2012-05-02T18:31:29Z</time>
      </trkpt>
      <trkpt lat="59.9863372" lon="17.7386866">
        <ele>63.5844</ele>
        <time>2012-05-02T18:31:35Z</time>
      </trkpt>
      <trkpt lat="59.986186" lon="17.7386049">
        <ele>61.6617</ele>
        <time>2012-05-02T18:31:40Z</time>
      </trkpt>
      <trkpt lat="59.9860379" lon="17.7385053">
        <ele>61.181</ele>
        <time>2012-05-02T18:31:45Z</time>
      </trkpt>
      <trkpt lat="59.9859151" lon="17.7384286">
        <ele>58.7777</ele>
        <time>2012-05-02T18:31:50Z</time>
      </trkpt>
      <trkpt lat="59.9858048" lon="17.7383723">
        <ele>59.7391</ele>
        <time>2012-05-02T18:31:54Z</time>
      </trkpt>
      <trkpt lat="59.9857484" lon="17.7383514">
        <ele>58.2971</ele>
        <time>2012-05-02T18:31:57Z</time>
      </trkpt>
      <trkpt lat="59.9856343" lon="17.7382428">
        <ele>57.3358</ele>
        <time>2012-05-02T18:32:02Z</time>
      </trkpt>
      <trkpt lat="59.985491" lon="17.7380629">
        <ele>57.3358</ele>
        <time>2012-05-02T18:32:07Z</time>
      </trkpt>
      <trkpt lat="59.9854511" lon="17.7378086">
        <ele>57.3358</ele>
        <time>2012-05-02T18:32:12Z</time>
      </trkpt>
      <trkpt lat="59.9854465" lon="17.7375755">
        <ele>55.4131</ele>
        <time>2012-05-02T18:32:17Z</time>
      </trkpt>
      <trkpt lat="59.9854589" lon="17.7374263">
        <ele>53.4905</ele>
        <time>2012-05-02T18:32:20Z</time>
      </trkpt>
      <trkpt lat="59.9855494" lon="17.7372605">
        <ele>50.6066</ele>
        <time>2012-05-02T18:32:25Z</time>
      </trkpt>
      <trkpt lat="59.9855734" lon="17.7372362">
        <ele>50.126</ele>
        <time>2012-05-02T18:32:26Z</time>
      </trkpt>
      <trkpt lat="59.9856661" lon="17.7371103">
        <ele>47.7225</ele>
        <time>2012-05-02T18:32:31Z</time>
      </trkpt>
      <trkpt lat="59.9857586" lon="17.7370222">
        <ele>46.7612</ele>
        <time>2012-05-02T18:32:35Z</time>
      </trkpt>
      <trkpt lat="59.9858539" lon="17.736899">
        <ele>46.2806</ele>
        <time>2012-05-02T18:32:40Z</time>
      </trkpt>
      <trkpt lat="59.9859307" lon="17.7368015">
        <ele>46.7612</ele>
        <time>2012-05-02T18:32:44Z</time>
      </trkpt>
      <trkpt lat="59.98601" lon="17.7366901">
        <ele>46.2806</ele>
        <time>2012-05-02T18:32:48Z</time>
      </trkpt>
      <trkpt lat="59.9860713" lon="17.7366378">
        <ele>45.7999</ele>
        <time>2012-05-02T18:32:51Z</time>
      </trkpt>
      <trkpt lat="59.9861903" lon="17.7365286">
        <ele>46.7612</ele>
        <time>2012-05-02T18:32:56Z</time>
      </trkpt>
      <trkpt lat="59.9862654" lon="17.7363763">
        <ele>48.2034</ele>
        <time>2012-05-02T18:33:00Z</time>
      </trkpt>
      <trkpt lat="59.9863203" lon="17.7362716">
        <ele>48.2034</ele>
        <time>2012-05-02T18:33:03Z</time>
      </trkpt>
      <trkpt lat="59.9864325" lon="17.7360127">
        <ele>47.2418</ele>
        <time>2012-05-02T18:33:10Z</time>
      </trkpt>
      <trkpt lat="59.9864887" lon="17.7358064">
        <ele>46.7612</ele>
        <time>2012-05-02T18:33:15Z</time>
      </trkpt>
      <trkpt lat="59.9865203" lon="17.735626">
        <ele>46.2806</ele>
        <time>2012-05-02T18:33:19Z</time>
      </trkpt>
      <trkpt lat="59.9865516" lon="17.7354936">
        <ele>46.2806</ele>
        <time>2012-05-02T18:33:22Z</time>
      </trkpt>
      <trkpt lat="59.986587" lon="17.7352625">
        <ele>45.3192</ele>
        <time>2012-05-02T18:33:27Z</time>
      </trkpt>
      <trkpt lat="59.9866415" lon="17.7349819">
        <ele>44.8386</ele>
        <time>2012-05-02T18:33:33Z</time>
      </trkpt>
      <trkpt lat="59.9866786" lon="17.7347581">
        <ele>44.8386</ele>
        <time>2012-05-02T18:33:38Z</time>
      </trkpt>
      <trkpt lat="59.9867258" lon="17.7345328">
        <ele>45.3192</ele>
        <time>2012-05-02T18:33:43Z</time>
      </trkpt>
      <trkpt lat="59.9867693" lon="17.7343876">
        <ele>44.358</ele>
        <time>2012-05-02T18:33:47Z</time>
      </trkpt>
      <trkpt lat="59.986831" lon="17.734201">
        <ele>44.358</ele>
        <time>2012-05-02T18:33:52Z</time>
      </trkpt>
      <trkpt lat="59.9868405" lon="17.7341582">
        <ele>44.8386</ele>
        <time>2012-05-02T18:33:53Z</time>
      </trkpt>
      <trkpt lat="59.9869129" lon="17.7339187">
        <ele>45.7999</ele>
        <time>2012-05-02T18:33:59Z</time>
      </trkpt>
      <trkpt lat="59.9869575" lon="17.7337162">
        <ele>47.2418</ele>
        <time>2012-05-02T18:34:03Z</time>
      </trkpt>
      <trkpt lat="59.9869875" lon="17.7334355">
        <ele>52.0486</ele>
        <time>2012-05-02T18:34:08Z</time>
      </trkpt>
      <trkpt lat="59.9870321" lon="17.7331877">
        <ele>53.0098</ele>
        <time>2012-05-02T18:34:13Z</time>
      </trkpt>
      <trkpt lat="59.9870722" lon="17.7329971">
        <ele>52.0486</ele>
        <time>2012-05-02T18:34:17Z</time>
      </trkpt>
      <trkpt lat="59.9871004" lon="17.7328854">
        <ele>49.6453</ele>
        <time>2012-05-02T18:34:20Z</time>
      </trkpt>
      <trkpt lat="59.987133" lon="17.732775">
        <ele>48.2034</ele>
        <time>2012-05-02T18:34:23Z</time>
      </trkpt>
      <trkpt lat="59.987177" lon="17.7326362">
        <ele>46.2806</ele>
        <time>2012-05-02T18:34:27Z</time>
      </trkpt>
      <trkpt lat="59.9871844" lon="17.7325467">
        <ele>46.2806</ele>
        <time>2012-05-02T18:34:29Z</time>
      </trkpt>
      <trkpt lat="59.9872231" lon="17.7322965">
        <ele>45.7999</ele>
        <time>2012-05-02T18:34:34Z</time>
      </trkpt>
      <trkpt lat="59.9873082" lon="17.7320545">
        <ele>44.8386</ele>
        <time>2012-05-02T18:34:40Z</time>
      </trkpt>
      <trkpt lat="59.9873785" lon="17.7318934">
        <ele>44.8386</ele>
        <time>2012-05-02T18:34:44Z</time>
      </trkpt>
      <trkpt lat="59.987465" lon="17.731711">
        <ele>43.8773</ele>
        <time>2012-05-02T18:34:49Z</time>
      </trkpt>
      <trkpt lat="59.987552" lon="17.7316114">
        <ele>43.8773</ele>
        <time>2012-05-02T18:34:52Z</time>
      </trkpt>
      <trkpt lat="59.9876241" lon="17.7314966">
        <ele>43.3966</ele>
        <time>2012-05-02T18:34:56Z</time>
      </trkpt>
      <trkpt lat="59.9877122" lon="17.7313319">
        <ele>41.9547</ele>
        <time>2012-05-02T18:35:01Z</time>
      </trkpt>
      <trkpt lat="59.9878049" lon="17.7311758">
        <ele>40.9934</ele>
        <time>2012-05-02T18:35:06Z</time>
      </trkpt>
      <trkpt lat="59.9879023" lon="17.7310267">
        <ele>40.0321</ele>
        <time>2012-05-02T18:35:11Z</time>
      </trkpt>
      <trkpt lat="59.9880003" lon="17.730843">
        <ele>39.0707</ele>
        <time>2012-05-02T18:35:16Z</time>
      </trkpt>
      <trkpt lat="59.9880945" lon="17.7306448">
        <ele>39.5513</ele>
        <time>2012-05-02T18:35:21Z</time>
      </trkpt>
      <trkpt lat="59.988166" lon="17.7305456">
        <ele>39.5513</ele>
        <time>2012-05-02T18:35:25Z</time>
      </trkpt>
      <trkpt lat="59.9882474" lon="17.7304249">
        <ele>39.0707</ele>
        <time>2012-05-02T18:35:29Z</time>
      </trkpt>
      <trkpt lat="59.9883409" lon="17.7302783">
        <ele>37.6287</ele>
        <time>2012-05-02T18:35:34Z</time>
      </trkpt>
      <trkpt lat="59.9883602" lon="17.7302461">
        <ele>37.6287</ele>
        <time>2012-05-02T18:35:35Z</time>
      </trkpt>
      <trkpt lat="59.9884945" lon="17.73003">
        <ele>36.6675</ele>
        <time>2012-05-02T18:35:42Z</time>
      </trkpt>
      <trkpt lat="59.9885747" lon="17.7299358">
        <ele>36.1868</ele>
        <time>2012-05-02T18:35:46Z</time>
      </trkpt>
      <trkpt lat="59.9886527" lon="17.7298509">
        <ele>34.7449</ele>
        <time>2012-05-02T18:35:50Z</time>
      </trkpt>
      <trkpt lat="59.9887896" lon="17.7297534">
        <ele>34.2642</ele>
        <time>2012-05-02T18:35:56Z</time>
      </trkpt>
      <trkpt lat="59.9888134" lon="17.7297282">
        <ele>34.2642</ele>
        <time>2012-05-02T18:35:57Z</time>
      </trkpt>
      <trkpt lat="59.9889087" lon="17.7295893">
        <ele>33.7834</ele>
        <time>2012-05-02T18:36:02Z</time>
      </trkpt>
      <trkpt lat="59.9889538" lon="17.7295236">
        <ele>33.7834</ele>
        <time>2012-05-02T18:36:04Z</time>
      </trkpt>
      <trkpt lat="59.9890764" lon="17.7293562">
        <ele>33.7834</ele>
        <time>2012-05-02T18:36:10Z</time>
      </trkpt>
      <trkpt lat="59.9891543" lon="17.7292534">
        <ele>33.7834</ele>
        <time>2012-05-02T18:36:14Z</time>
      </trkpt>
      <trkpt lat="59.9892085" lon="17.7292218">
        <ele>33.3029</ele>
        <time>2012-05-02T18:36:16Z</time>
      </trkpt>
      <trkpt lat="59.9893056" lon="17.7290807">
        <ele>34.7449</ele>
        <time>2012-05-02T18:36:21Z</time>
      </trkpt>
      <trkpt lat="59.9893387" lon="17.7290211">
        <ele>35.7061</ele>
        <time>2012-05-02T18:36:23Z</time>
      </trkpt>
      <trkpt lat="59.9894311" lon="17.7288523">
        <ele>36.1868</ele>
        <time>2012-05-02T18:36:28Z</time>
      </trkpt>
      <trkpt lat="59.9894834" lon="17.7287008">
        <ele>35.2255</ele>
        <time>2012-05-02T18:36:32Z</time>
      </trkpt>
      <trkpt lat="59.9895126" lon="17.7284682">
        <ele>34.2642</ele>
        <time>2012-05-02T18:36:37Z</time>
      </trkpt>
      <trkpt lat="59.9895334" lon="17.7282819">
        <ele>33.3029</ele>
        <time>2012-05-02T18:36:41Z</time>
      </trkpt>
      <trkpt lat="59.9895457" lon="17.7281128">
        <ele>33.3029</ele>
        <time>2012-05-02T18:36:45Z</time>
      </trkpt>
      <trkpt lat="59.9895509" lon="17.7279772">
        <ele>32.8223</ele>
        <time>2012-05-02T18:36:48Z</time>
      </trkpt>
      <trkpt lat="59.9895563" lon="17.7276825">
        <ele>34.7449</ele>
        <time>2012-05-02T18:36:54Z</time>
      </trkpt>
      <trkpt lat="59.9895572" lon="17.7275932">
        <ele>34.2642</ele>
        <time>2012-05-02T18:36:56Z</time>
      </trkpt>
      <trkpt lat="59.9895748" lon="17.7274205">
        <ele>34.7449</ele>
        <time>2012-05-02T18:37:00Z</time>
      </trkpt>
      <trkpt lat="59.9895786" lon="17.7273705">
        <ele>35.2255</ele>
        <time>2012-05-02T18:37:01Z</time>
      </trkpt>
      <trkpt lat="59.9895915" lon="17.7271822">
        <ele>36.1868</ele>
        <time>2012-05-02T18:37:05Z</time>
      </trkpt>
      <trkpt lat="59.9896175" lon="17.726891">
        <ele>37.6287</ele>
        <time>2012-05-02T18:37:11Z</time>
      </trkpt>
      <trkpt lat="59.989632" lon="17.7266672">
        <ele>37.6287</ele>
        <time>2012-05-02T18:37:16Z</time>
      </trkpt>
      <trkpt lat="59.9896354" lon="17.7265316">
        <ele>36.6675</ele>
        <time>2012-05-02T18:37:19Z</time>
      </trkpt>
      <trkpt lat="59.9895717" lon="17.7264999">
        <ele>35.7061</ele>
        <time>2012-05-02T18:37:23Z</time>
      </trkpt>
      <trkpt lat="59.9894683" lon="17.7265807">
        <ele>35.7061</ele>
        <time>2012-05-02T18:37:28Z</time>
      </trkpt>
      <trkpt lat="59.9893969" lon="17.7266173">
        <ele>36.1868</ele>
        <time>2012-05-02T18:37:31Z</time>
      </trkpt>
      <trkpt lat="59.9892772" lon="17.7266533">
        <ele>35.7061</ele>
        <time>2012-05-02T18:37:35Z</time>
      </trkpt>
      <trkpt lat="59.9891946" lon="17.7266682">
        <ele>36.6675</ele>
        <time>2012-05-02T18:37:38Z</time>
      </trkpt>
      <trkpt lat="59.9891158" lon="17.7266592">
        <ele>36.6675</ele>
        <time>2012-05-02T18:37:41Z</time>
      </trkpt>
      <trkpt lat="59.9890636" lon="17.7266432">
        <ele>37.6287</ele>
        <time>2012-05-02T18:37:43Z</time>
      </trkpt>
      <trkpt lat="59.9889099" lon="17.7266333">
        <ele>37.6287</ele>
        <time>2012-05-02T18:37:49Z</time>
      </trkpt>
      <trkpt lat="59.9888129" lon="17.7266347">
        <ele>39.0707</ele>
        <time>2012-05-02T18:37:53Z</time>
      </trkpt>
      <trkpt lat="59.9886476" lon="17.7266228">
        <ele>40.5128</ele>
        <time>2012-05-02T18:38:00Z</time>
      </trkpt>
      <trkpt lat="59.9885436" lon="17.7266304">
        <ele>41.474</ele>
        <time>2012-05-02T18:38:04Z</time>
      </trkpt>
      <trkpt lat="59.9884264" lon="17.7266149">
        <ele>40.9934</ele>
        <time>2012-05-02T18:38:09Z</time>
      </trkpt>
      <trkpt lat="59.9883447" lon="17.726622">
        <ele>40.5128</ele>
        <time>2012-05-02T18:38:12Z</time>
      </trkpt>
      <trkpt lat="59.9881894" lon="17.7266505">
        <ele>37.6287</ele>
        <time>2012-05-02T18:38:18Z</time>
      </trkpt>
      <trkpt lat="59.9880651" lon="17.7266531">
        <ele>36.6675</ele>
        <time>2012-05-02T18:38:23Z</time>
      </trkpt>
      <trkpt lat="59.987962" lon="17.7266501">
        <ele>37.1481</ele>
        <time>2012-05-02T18:38:27Z</time>
      </trkpt>
      <trkpt lat="59.9878697" lon="17.7266574">
        <ele>36.1868</ele>
        <time>2012-05-02T18:38:31Z</time>
      </trkpt>
      <trkpt lat="59.9876693" lon="17.7266366">
        <ele>34.7449</ele>
        <time>2012-05-02T18:38:40Z</time>
      </trkpt>
      <trkpt lat="59.9875247" lon="17.7266142">
        <ele>36.1868</ele>
        <time>2012-05-02T18:38:46Z</time>
      </trkpt>
      <trkpt lat="59.9873796" lon="17.7266165">
        <ele>37.1481</ele>
        <time>2012-05-02T18:38:52Z</time>
      </trkpt>
      <trkpt lat="59.9873333" lon="17.7266258">
        <ele>37.1481</ele>
        <time>2012-05-02T18:38:54Z</time>
      </trkpt>
      <trkpt lat="59.9871793" lon="17.7266247">
        <ele>37.1481</ele>
        <time>2012-05-02T18:39:00Z</time>
      </trkpt>
      <trkpt lat="59.9871562" lon="17.7266257">
        <ele>37.1481</ele>
        <time>2012-05-02T18:39:01Z</time>
      </trkpt>
      <trkpt lat="59.9870383" lon="17.7266308">
        <ele>37.6287</ele>
        <time>2012-05-02T18:39:06Z</time>
      </trkpt>
      <trkpt lat="59.986941" lon="17.7265901">
        <ele>36.6675</ele>
        <time>2012-05-02T18:39:10Z</time>
      </trkpt>
      <trkpt lat="59.9868459" lon="17.7265776">
        <ele>35.7061</ele>
        <time>2012-05-02T18:39:14Z</time>
      </trkpt>
      <trkpt lat="59.986692" lon="17.7265272">
        <ele>35.2255</ele>
        <time>2012-05-02T18:39:20Z</time>
      </trkpt>
      <trkpt lat="59.9865596" lon="17.7265275">
        <ele>34.7449</ele>
        <time>2012-05-02T18:39:25Z</time>
      </trkpt>
      <trkpt lat="59.9864444" lon="17.7265476">
        <ele>34.7449</ele>
        <time>2012-05-02T18:39:29Z</time>
      </trkpt>
      <trkpt lat="59.9863308" lon="17.7265614">
        <ele>35.2255</ele>
        <time>2012-05-02T18:39:33Z</time>
      </trkpt>
      <trkpt lat="59.9862008" lon="17.7265681">
        <ele>34.7449</ele>
        <time>2012-05-02T18:39:39Z</time>
      </trkpt>
      <trkpt lat="59.9860809" lon="17.7265765">
        <ele>35.7061</ele>
        <time>2012-05-02T18:39:44Z</time>
      </trkpt>
      <trkpt lat="59.9859511" lon="17.7265697">
        <ele>35.2255</ele>
        <time>2012-05-02T18:39:50Z</time>
      </trkpt>
      <trkpt lat="59.9858338" lon="17.7265823">
        <ele>35.7061</ele>
        <time>2012-05-02T18:39:55Z</time>
      </trkpt>
      <trkpt lat="59.9857438" lon="17.7265995">
        <ele>36.6675</ele>
        <time>2012-05-02T18:39:59Z</time>
      </trkpt>
      <trkpt lat="59.9856241" lon="17.726616">
        <ele>37.6287</ele>
        <time>2012-05-02T18:40:04Z</time>
      </trkpt>
      <trkpt lat="59.9855384" lon="17.7266325">
        <ele>38.5901</ele>
        <time>2012-05-02T18:40:08Z</time>
      </trkpt>
      <trkpt lat="59.9853536" lon="17.7266346">
        <ele>39.5513</ele>
        <time>2012-05-02T18:40:16Z</time>
      </trkpt>
      <trkpt lat="59.9852178" lon="17.7266414">
        <ele>39.5513</ele>
        <time>2012-05-02T18:40:22Z</time>
      </trkpt>
      <trkpt lat="59.9850971" lon="17.7266557">
        <ele>40.0321</ele>
        <time>2012-05-02T18:40:27Z</time>
      </trkpt>
      <trkpt lat="59.9849795" lon="17.7266605">
        <ele>40.5128</ele>
        <time>2012-05-02T18:40:32Z</time>
      </trkpt>
      <trkpt lat="59.9848814" lon="17.7266673">
        <ele>40.9934</ele>
        <time>2012-05-02T18:40:36Z</time>
      </trkpt>
      <trkpt lat="59.9847596" lon="17.7266787">
        <ele>41.9547</ele>
        <time>2012-05-02T18:40:41Z</time>
      </trkpt>
      <trkpt lat="59.9846164" lon="17.7266829">
        <ele>42.4354</ele>
        <time>2012-05-02T18:40:47Z</time>
      </trkpt>
      <trkpt lat="59.9844741" lon="17.7266818">
        <ele>42.916</ele>
        <time>2012-05-02T18:40:53Z</time>
      </trkpt>
      <trkpt lat="59.9843264" lon="17.7266785">
        <ele>43.8773</ele>
        <time>2012-05-02T18:40:59Z</time>
      </trkpt>
      <trkpt lat="59.9842296" lon="17.726674">
        <ele>44.358</ele>
        <time>2012-05-02T18:41:03Z</time>
      </trkpt>
      <trkpt lat="59.9841094" lon="17.7266723">
        <ele>42.916</ele>
        <time>2012-05-02T18:41:08Z</time>
      </trkpt>
      <trkpt lat="59.9839939" lon="17.7266642">
        <ele>41.9547</ele>
        <time>2012-05-02T18:41:13Z</time>
      </trkpt>
      <trkpt lat="59.983971" lon="17.7266592">
        <ele>41.9547</ele>
        <time>2012-05-02T18:41:14Z</time>
      </trkpt>
      <trkpt lat="59.9838375" lon="17.726663">
        <ele>41.474</ele>
        <time>2012-05-02T18:41:19Z</time>
      </trkpt>
      <trkpt lat="59.9837318" lon="17.7266485">
        <ele>41.474</ele>
        <time>2012-05-02T18:41:23Z</time>
      </trkpt>
      <trkpt lat="59.9837057" lon="17.7266455">
        <ele>40.9934</ele>
        <time>2012-05-02T18:41:24Z</time>
      </trkpt>
      <trkpt lat="59.9835539" lon="17.7266699">
        <ele>41.474</ele>
        <time>2012-05-02T18:41:30Z</time>
      </trkpt>
      <trkpt lat="59.9834379" lon="17.7266771">
        <ele>41.474</ele>
        <time>2012-05-02T18:41:35Z</time>
      </trkpt>
      <trkpt lat="59.9834163" lon="17.7266722">
        <ele>41.474</ele>
        <time>2012-05-02T18:41:36Z</time>
      </trkpt>
      <trkpt lat="59.9833266" lon="17.7266646">
        <ele>40.5128</ele>
        <time>2012-05-02T18:41:40Z</time>
      </trkpt>
      <trkpt lat="59.9831531" lon="17.7266352">
        <ele>39.0707</ele>
        <time>2012-05-02T18:41:47Z</time>
      </trkpt>
      <trkpt lat="59.9830553" lon="17.7266391">
        <ele>38.1094</ele>
        <time>2012-05-02T18:41:51Z</time>
      </trkpt>
      <trkpt lat="59.9829746" lon="17.7265948">
        <ele>37.6287</ele>
        <time>2012-05-02T18:41:55Z</time>
      </trkpt>
      <trkpt lat="59.9828437" lon="17.7265844">
        <ele>36.1868</ele>
        <time>2012-05-02T18:42:00Z</time>
      </trkpt>
      <trkpt lat="59.9827699" lon="17.7266024">
        <ele>36.1868</ele>
        <time>2012-05-02T18:42:03Z</time>
      </trkpt>
      <trkpt lat="59.9827274" lon="17.7266131">
        <ele>37.1481</ele>
        <time>2012-05-02T18:42:05Z</time>
      </trkpt>
      <trkpt lat="59.9826645" lon="17.7266484">
        <ele>37.6287</ele>
        <time>2012-05-02T18:42:08Z</time>
      </trkpt>
      <trkpt lat="59.9825807" lon="17.72679">
        <ele>39.0707</ele>
        <time>2012-05-02T18:42:12Z</time>
      </trkpt>
      <trkpt lat="59.9825016" lon="17.7268839">
        <ele>39.0707</ele>
        <time>2012-05-02T18:42:16Z</time>
      </trkpt>
      <trkpt lat="59.9823744" lon="17.7269571">
        <ele>40.0321</ele>
        <time>2012-05-02T18:42:22Z</time>
      </trkpt>
      <trkpt lat="59.9823359" lon="17.7269879">
        <ele>40.5128</ele>
        <time>2012-05-02T18:42:24Z</time>
      </trkpt>
      <trkpt lat="59.9822651" lon="17.7271785">
        <ele>41.474</ele>
        <time>2012-05-02T18:42:29Z</time>
      </trkpt>
      <trkpt lat="59.9822218" lon="17.7273125">
        <ele>42.4354</ele>
        <time>2012-05-02T18:42:33Z</time>
      </trkpt>
      <trkpt lat="59.9821396" lon="17.7275431">
        <ele>44.358</ele>
        <time>2012-05-02T18:42:39Z</time>
      </trkpt>
      <trkpt lat="59.9821223" lon="17.7275689">
        <ele>44.358</ele>
        <time>2012-05-02T18:42:40Z</time>
      </trkpt>
      <trkpt lat="59.9820533" lon="17.7277219">
        <ele>42.916</ele>
        <time>2012-05-02T18:42:44Z</time>
      </trkpt>
      <trkpt lat="59.9819229" lon="17.7278921">
        <ele>40.9934</ele>
        <time>2012-05-02T18:42:50Z</time>
      </trkpt>
      <trkpt lat="59.9817955" lon="17.7281055">
        <ele>40.5128</ele>
        <time>2012-05-02T18:42:57Z</time>
      </trkpt>
      <trkpt lat="59.9817478" lon="17.7281798">
        <ele>40.0321</ele>
        <time>2012-05-02T18:43:00Z</time>
      </trkpt>
      <trkpt lat="59.9816545" lon="17.7282503">
        <ele>39.5513</ele>
        <time>2012-05-02T18:43:04Z</time>
      </trkpt>
      <trkpt lat="59.9815334" lon="17.7283164">
        <ele>39.5513</ele>
        <time>2012-05-02T18:43:09Z</time>
      </trkpt>
      <trkpt lat="59.9814265" lon="17.7284124">
        <ele>39.5513</ele>
        <time>2012-05-02T18:43:14Z</time>
      </trkpt>
      <trkpt lat="59.9813464" lon="17.7285562">
        <ele>39.5513</ele>
        <time>2012-05-02T18:43:19Z</time>
      </trkpt>
      <trkpt lat="59.9812786" lon="17.728674">
        <ele>40.5128</ele>
        <time>2012-05-02T18:43:23Z</time>
      </trkpt>
      <trkpt lat="59.9811155" lon="17.728851">
        <ele>40.0321</ele>
        <time>2012-05-02T18:43:31Z</time>
      </trkpt>
      <trkpt lat="59.980975" lon="17.7289391">
        <ele>39.0707</ele>
        <time>2012-05-02T18:43:37Z</time>
      </trkpt>
      <trkpt lat="59.9808528" lon="17.7289652">
        <ele>38.5901</ele>
        <time>2012-05-02T18:43:42Z</time>
      </trkpt>
      <trkpt lat="59.9807323" lon="17.7288335">
        <ele>35.2255</ele>
        <time>2012-05-02T18:43:47Z</time>
      </trkpt>
      <trkpt lat="59.980707" lon="17.7287976">
        <ele>34.7449</ele>
        <time>2012-05-02T18:43:48Z</time>
      </trkpt>
      <trkpt lat="59.9806314" lon="17.7285511">
        <ele>32.3416</ele>
        <time>2012-05-02T18:43:53Z</time>
      </trkpt>
      <trkpt lat="59.9805528" lon="17.7283983">
        <ele>29.4575</ele>
        <time>2012-05-02T18:43:58Z</time>
      </trkpt>
      <trkpt lat="59.9805139" lon="17.7283311">
        <ele>28.4962</ele>
        <time>2012-05-02T18:44:00Z</time>
      </trkpt>
      <trkpt lat="59.9804114" lon="17.7281576">
        <ele>25.6123</ele>
        <time>2012-05-02T18:44:05Z</time>
      </trkpt>
      <trkpt lat="59.9803388" lon="17.7280062">
        <ele>25.1317</ele>
        <time>2012-05-02T18:44:09Z</time>
      </trkpt>
      <trkpt lat="59.9802705" lon="17.7278593">
        <ele>25.1317</ele>
        <time>2012-05-02T18:44:13Z</time>
      </trkpt>
      <trkpt lat="59.9801767" lon="17.7276442">
        <ele>23.6896</ele>
        <time>2012-05-02T18:44:19Z</time>
      </trkpt>
      <trkpt lat="59.9800886" lon="17.7274799">
        <ele>23.209</ele>
        <time>2012-05-02T18:44:24Z</time>
      </trkpt>
      <trkpt lat="59.9799954" lon="17.727322">
        <ele>22.7283</ele>
        <time>2012-05-02T18:44:29Z</time>
      </trkpt>
      <trkpt lat="59.9799077" lon="17.7271578">
        <ele>22.2476</ele>
        <time>2012-05-02T18:44:34Z</time>
      </trkpt>
      <trkpt lat="59.979847" lon="17.727042">
        <ele>21.767</ele>
        <time>2012-05-02T18:44:38Z</time>
      </trkpt>
      <trkpt lat="59.9797405" lon="17.7268644">
        <ele>22.2476</ele>
        <time>2012-05-02T18:44:44Z</time>
      </trkpt>
      <trkpt lat="59.9796539" lon="17.7266749">
        <ele>21.767</ele>
        <time>2012-05-02T18:44:49Z</time>
      </trkpt>
      <trkpt lat="59.9795831" lon="17.7265144">
        <ele>22.2476</ele>
        <time>2012-05-02T18:44:53Z</time>
      </trkpt>
      <trkpt lat="59.9795005" lon="17.7263294">
        <ele>20.8057</ele>
        <time>2012-05-02T18:44:58Z</time>
      </trkpt>
      <trkpt lat="59.97941" lon="17.7262813">
        <ele>19.3638</ele>
        <time>2012-05-02T18:45:03Z</time>
      </trkpt>
      <trkpt lat="59.9793391" lon="17.7262631">
        <ele>18.8831</ele>
        <time>2012-05-02T18:45:06Z</time>
      </trkpt>
      <trkpt lat="59.9792137" lon="17.7261963">
        <ele>17.9218</ele>
        <time>2012-05-02T18:45:11Z</time>
      </trkpt>
      <trkpt lat="59.9791106" lon="17.7260946">
        <ele>17.4412</ele>
        <time>2012-05-02T18:45:16Z</time>
      </trkpt>
      <trkpt lat="59.9790085" lon="17.72597">
        <ele>17.4412</ele>
        <time>2012-05-02T18:45:21Z</time>
      </trkpt>
      <trkpt lat="59.978969" lon="17.725899">
        <ele>16.9604</ele>
        <time>2012-05-02T18:45:23Z</time>
      </trkpt>
      <trkpt lat="59.9789076" lon="17.7258061">
        <ele>16.9604</ele>
        <time>2012-05-02T18:45:26Z</time>
      </trkpt>
      <trkpt lat="59.9788309" lon="17.7256916">
        <ele>16.9604</ele>
        <time>2012-05-02T18:45:30Z</time>
      </trkpt>
      <trkpt lat="59.978723" lon="17.7256061">
        <ele>17.4412</ele>
        <time>2012-05-02T18:45:35Z</time>
      </trkpt>
      <trkpt lat="59.9786028" lon="17.7255461">
        <ele>17.4412</ele>
        <time>2012-05-02T18:45:40Z</time>
      </trkpt>
      <trkpt lat="59.9785179" lon="17.7254723">
        <ele>17.4412</ele>
        <time>2012-05-02T18:45:44Z</time>
      </trkpt>
      <trkpt lat="59.9784173" lon="17.7254208">
        <ele>18.8831</ele>
        <time>2012-05-02T18:45:48Z</time>
      </trkpt>
      <trkpt lat="59.9783096" lon="17.7253888">
        <ele>19.8444</ele>
        <time>2012-05-02T18:45:52Z</time>
      </trkpt>
      <trkpt lat="59.9782868" lon="17.725377">
        <ele>20.325</ele>
        <time>2012-05-02T18:45:53Z</time>
      </trkpt>
      <trkpt lat="59.9781932" lon="17.7253033">
        <ele>21.767</ele>
        <time>2012-05-02T18:45:57Z</time>
      </trkpt>
      <trkpt lat="59.9781482" lon="17.7252702">
        <ele>21.767</ele>
        <time>2012-05-02T18:45:59Z</time>
      </trkpt>
      <trkpt lat="59.9779678" lon="17.7251777">
        <ele>22.2476</ele>
        <time>2012-05-02T18:46:06Z</time>
      </trkpt>
      <trkpt lat="59.9778223" lon="17.7251515">
        <ele>22.7283</ele>
        <time>2012-05-02T18:46:12Z</time>
      </trkpt>
      <trkpt lat="59.9777033" lon="17.725122">
        <ele>22.7283</ele>
        <time>2012-05-02T18:46:17Z</time>
      </trkpt>
      <trkpt lat="59.9775606" lon="17.7250847">
        <ele>23.6896</ele>
        <time>2012-05-02T18:46:23Z</time>
      </trkpt>
      <trkpt lat="59.9774363" lon="17.7250485">
        <ele>24.651</ele>
        <time>2012-05-02T18:46:28Z</time>
      </trkpt>
      <trkpt lat="59.9773184" lon="17.7250225">
        <ele>25.1317</ele>
        <time>2012-05-02T18:46:33Z</time>
      </trkpt>
      <trkpt lat="59.9771722" lon="17.7249925">
        <ele>26.0929</ele>
        <time>2012-05-02T18:46:39Z</time>
      </trkpt>
      <trkpt lat="59.9770537" lon="17.7250441">
        <ele>26.0929</ele>
        <time>2012-05-02T18:46:43Z</time>
      </trkpt>
      <trkpt lat="59.9769776" lon="17.725136">
        <ele>26.0929</ele>
        <time>2012-05-02T18:46:47Z</time>
      </trkpt>
      <trkpt lat="59.9768612" lon="17.7252955">
        <ele>26.5736</ele>
        <time>2012-05-02T18:46:53Z</time>
      </trkpt>
      <trkpt lat="59.9767294" lon="17.7254577">
        <ele>26.5736</ele>
        <time>2012-05-02T18:46:59Z</time>
      </trkpt>
      <trkpt lat="59.9766268" lon="17.7255582">
        <ele>27.5349</ele>
        <time>2012-05-02T18:47:04Z</time>
      </trkpt>
      <trkpt lat="59.9765253" lon="17.72567">
        <ele>28.4962</ele>
        <time>2012-05-02T18:47:09Z</time>
      </trkpt>
      <trkpt lat="59.9765087" lon="17.7256887">
        <ele>28.9769</ele>
        <time>2012-05-02T18:47:10Z</time>
      </trkpt>
      <trkpt lat="59.9763961" lon="17.725796">
        <ele>29.9381</ele>
        <time>2012-05-02T18:47:16Z</time>
      </trkpt>
      <trkpt lat="59.9763788" lon="17.7258147">
        <ele>30.4188</ele>
        <time>2012-05-02T18:47:17Z</time>
      </trkpt>
      <trkpt lat="59.9762486" lon="17.7259399">
        <ele>31.3801</ele>
        <time>2012-05-02T18:47:23Z</time>
      </trkpt>
      <trkpt lat="59.9761545" lon="17.7260214">
        <ele>33.3029</ele>
        <time>2012-05-02T18:47:28Z</time>
      </trkpt>
      <trkpt lat="59.9761171" lon="17.7260792">
        <ele>34.2642</ele>
        <time>2012-05-02T18:47:30Z</time>
      </trkpt>
      <trkpt lat="59.9760355" lon="17.7261998">
        <ele>34.7449</ele>
        <time>2012-05-02T18:47:34Z</time>
      </trkpt>
      <trkpt lat="59.9759369" lon="17.7262985">
        <ele>34.7449</ele>
        <time>2012-05-02T18:47:39Z</time>
      </trkpt>
      <trkpt lat="59.9758296" lon="17.7264212">
        <ele>34.7449</ele>
        <time>2012-05-02T18:47:44Z</time>
      </trkpt>
      <trkpt lat="59.9757245" lon="17.7265067">
        <ele>35.7061</ele>
        <time>2012-05-02T18:47:49Z</time>
      </trkpt>
      <trkpt lat="59.9756001" lon="17.7265874">
        <ele>35.2255</ele>
        <time>2012-05-02T18:47:55Z</time>
      </trkpt>
      <trkpt lat="59.975513" lon="17.7266596">
        <ele>33.7834</ele>
        <time>2012-05-02T18:47:59Z</time>
      </trkpt>
      <trkpt lat="59.9754255" lon="17.7267563">
        <ele>32.8223</ele>
        <time>2012-05-02T18:48:03Z</time>
      </trkpt>
      <trkpt lat="59.9753022" lon="17.7269019">
        <ele>31.3801</ele>
        <time>2012-05-02T18:48:09Z</time>
      </trkpt>
      <trkpt lat="59.9751898" lon="17.7270019">
        <ele>30.4188</ele>
        <time>2012-05-02T18:48:14Z</time>
      </trkpt>
      <trkpt lat="59.9750814" lon="17.7270925">
        <ele>31.3801</ele>
        <time>2012-05-02T18:48:19Z</time>
      </trkpt>
      <trkpt lat="59.9749929" lon="17.7271956">
        <ele>30.8995</ele>
        <time>2012-05-02T18:48:23Z</time>
      </trkpt>
      <trkpt lat="59.974908" lon="17.7272592">
        <ele>29.9381</ele>
        <time>2012-05-02T18:48:27Z</time>
      </trkpt>
      <trkpt lat="59.9748268" lon="17.7273607">
        <ele>29.4575</ele>
        <time>2012-05-02T18:48:30Z</time>
      </trkpt>
      <trkpt lat="59.9747294" lon="17.7274737">
        <ele>29.9381</ele>
        <time>2012-05-02T18:48:34Z</time>
      </trkpt>
      <trkpt lat="59.9746375" lon="17.7275378">
        <ele>29.9381</ele>
        <time>2012-05-02T18:48:38Z</time>
      </trkpt>
      <trkpt lat="59.9745281" lon="17.7276385">
        <ele>29.9381</ele>
        <time>2012-05-02T18:48:43Z</time>
      </trkpt>
      <trkpt lat="59.9744273" lon="17.7277358">
        <ele>29.4575</ele>
        <time>2012-05-02T18:48:48Z</time>
      </trkpt>
      <trkpt lat="59.9743943" lon="17.7279556">
        <ele>28.4962</ele>
        <time>2012-05-02T18:48:53Z</time>
      </trkpt>
      <trkpt lat="59.9744061" lon="17.7280947">
        <ele>28.4962</ele>
        <time>2012-05-02T18:48:56Z</time>
      </trkpt>
      <trkpt lat="59.9744288" lon="17.7283887">
        <ele>26.0929</ele>
        <time>2012-05-02T18:49:02Z</time>
      </trkpt>
      <trkpt lat="59.9744518" lon="17.7287817">
        <ele>23.6896</ele>
        <time>2012-05-02T18:49:10Z</time>
      </trkpt>
      <trkpt lat="59.974459" lon="17.7290345">
        <ele>22.7283</ele>
        <time>2012-05-02T18:49:15Z</time>
      </trkpt>
      <trkpt lat="59.9744774" lon="17.7293316">
        <ele>23.6896</ele>
        <time>2012-05-02T18:49:21Z</time>
      </trkpt>
      <trkpt lat="59.9744675" lon="17.7297013">
        <ele>24.651</ele>
        <time>2012-05-02T18:49:28Z</time>
      </trkpt>
      <trkpt lat="59.9744567" lon="17.7298426">
        <ele>24.651</ele>
        <time>2012-05-02T18:49:31Z</time>
      </trkpt>
      <trkpt lat="59.9744371" lon="17.7300405">
        <ele>24.1703</ele>
        <time>2012-05-02T18:49:35Z</time>
      </trkpt>
      <trkpt lat="59.9744179" lon="17.7303492">
        <ele>23.209</ele>
        <time>2012-05-02T18:49:41Z</time>
      </trkpt>
      <trkpt lat="59.9743958" lon="17.7306155">
        <ele>22.2476</ele>
        <time>2012-05-02T18:49:46Z</time>
      </trkpt>
      <trkpt lat="59.9743732" lon="17.7309154">
        <ele>22.7283</ele>
        <time>2012-05-02T18:49:52Z</time>
      </trkpt>
      <trkpt lat="59.9743582" lon="17.7312283">
        <ele>22.2476</ele>
        <time>2012-05-02T18:49:58Z</time>
      </trkpt>
      <trkpt lat="59.9743433" lon="17.7314798">
        <ele>21.767</ele>
        <time>2012-05-02T18:50:03Z</time>
      </trkpt>
      <trkpt lat="59.9743434" lon="17.7317287">
        <ele>21.2864</ele>
        <time>2012-05-02T18:50:08Z</time>
      </trkpt>
      <trkpt lat="59.9743463" lon="17.7319857">
        <ele>21.2864</ele>
        <time>2012-05-02T18:50:13Z</time>
      </trkpt>
      <trkpt lat="59.9743621" lon="17.7322429">
        <ele>21.2864</ele>
        <time>2012-05-02T18:50:18Z</time>
      </trkpt>
      <trkpt lat="59.9743749" lon="17.7325275">
        <ele>22.7283</ele>
        <time>2012-05-02T18:50:24Z</time>
      </trkpt>
      <trkpt lat="59.9743836" lon="17.7327168">
        <ele>23.6896</ele>
        <time>2012-05-02T18:50:28Z</time>
      </trkpt>
      <trkpt lat="59.9743937" lon="17.7329311">
        <ele>25.1317</ele>
        <time>2012-05-02T18:50:32Z</time>
      </trkpt>
      <trkpt lat="59.9743925" lon="17.7332549">
        <ele>27.5349</ele>
        <time>2012-05-02T18:50:38Z</time>
      </trkpt>
      <trkpt lat="59.9743843" lon="17.7335765">
        <ele>28.9769</ele>
        <time>2012-05-02T18:50:44Z</time>
      </trkpt>
      <trkpt lat="59.9743706" lon="17.7338339">
        <ele>29.4575</ele>
        <time>2012-05-02T18:50:49Z</time>
      </trkpt>
      <trkpt lat="59.9743625" lon="17.7340733">
        <ele>29.9381</ele>
        <time>2012-05-02T18:50:54Z</time>
      </trkpt>
      <trkpt lat="59.9743563" lon="17.7344716">
        <ele>31.3801</ele>
        <time>2012-05-02T18:51:02Z</time>
      </trkpt>
      <trkpt lat="59.9743722" lon="17.7347145">
        <ele>32.3416</ele>
        <time>2012-05-02T18:51:07Z</time>
      </trkpt>
      <trkpt lat="59.9743859" lon="17.7349536">
        <ele>32.8223</ele>
        <time>2012-05-02T18:51:12Z</time>
      </trkpt>
      <trkpt lat="59.974401" lon="17.7351986">
        <ele>32.3416</ele>
        <time>2012-05-02T18:51:17Z</time>
      </trkpt>
      <trkpt lat="59.9744237" lon="17.7354388">
        <ele>34.2642</ele>
        <time>2012-05-02T18:51:22Z</time>
      </trkpt>
      <trkpt lat="59.9744523" lon="17.7356884">
        <ele>34.7449</ele>
        <time>2012-05-02T18:51:27Z</time>
      </trkpt>
      <trkpt lat="59.97448" lon="17.7359715">
        <ele>32.3416</ele>
        <time>2012-05-02T18:51:33Z</time>
      </trkpt>
      <trkpt lat="59.974532" lon="17.7362514">
        <ele>30.4188</ele>
        <time>2012-05-02T18:51:39Z</time>
      </trkpt>
      <trkpt lat="59.9745844" lon="17.7364699">
        <ele>31.3801</ele>
        <time>2012-05-02T18:51:44Z</time>
      </trkpt>
      <trkpt lat="59.9746527" lon="17.7367088">
        <ele>32.3416</ele>
        <time>2012-05-02T18:51:49Z</time>
      </trkpt>
      <trkpt lat="59.974727" lon="17.7369288">
        <ele>32.3416</ele>
        <time>2012-05-02T18:51:54Z</time>
      </trkpt>
      <trkpt lat="59.9748081" lon="17.7371155">
        <ele>31.3801</ele>
        <time>2012-05-02T18:51:59Z</time>
      </trkpt>
      <trkpt lat="59.9748861" lon="17.7373088">
        <ele>30.8995</ele>
        <time>2012-05-02T18:52:04Z</time>
      </trkpt>
      <trkpt lat="59.9749752" lon="17.7374874">
        <ele>31.3801</ele>
        <time>2012-05-02T18:52:09Z</time>
      </trkpt>
      <trkpt lat="59.9750805" lon="17.7376946">
        <ele>31.8607</ele>
        <time>2012-05-02T18:52:15Z</time>
      </trkpt>
      <trkpt lat="59.9751609" lon="17.7378612">
        <ele>32.8223</ele>
        <time>2012-05-02T18:52:20Z</time>
      </trkpt>
      <trkpt lat="59.9752366" lon="17.7379869">
        <ele>32.8223</ele>
        <time>2012-05-02T18:52:24Z</time>
      </trkpt>
      <trkpt lat="59.9753281" lon="17.7381603">
        <ele>35.2255</ele>
        <time>2012-05-02T18:52:29Z</time>
      </trkpt>
      <trkpt lat="59.9754535" lon="17.7383301">
        <ele>35.7061</ele>
        <time>2012-05-02T18:52:35Z</time>
      </trkpt>
      <trkpt lat="59.9755417" lon="17.7385064">
        <ele>36.6675</ele>
        <time>2012-05-02T18:52:40Z</time>
      </trkpt>
      <trkpt lat="59.9756544" lon="17.7387243">
        <ele>38.1094</ele>
        <time>2012-05-02T18:52:46Z</time>
      </trkpt>
      <trkpt lat="59.9757077" lon="17.738826">
        <ele>38.5901</ele>
        <time>2012-05-02T18:52:49Z</time>
      </trkpt>
    </trkseg>
  </trk>
</gpx>